createdAt,value
2022-09-29T00:01:13.315Z,5.00
2022-09-29T00:03:41.232Z,5.80
2022-09-29T00:06:18.111Z,7.30
2022-09-29T00:08:46.822Z,8.00
2022-09-29T00:11:18.259Z,6.10
2022-09-29T00:13:47.584Z,4.90
2022-09-29T00:16:16.143Z,3.80
2022-09-29T00:18:43.945Z,3.70
2022-09-29T00:21:15.445Z,4.40
2022-09-29T00:23:43.393Z,4.00
2022-09-29T00:26:15.769Z,4.30
2022-09-29T00:29:01.785Z,4.10
2022-09-29T00:31:32.734Z,3.80
2022-09-29T00:34:00.889Z,4.00
2022-09-29T00:36:30.347Z,3.90
2022-09-29T00:38:59.267Z,3.90
2022-09-29T00:41:33.790Z,4.50
2022-09-29T00:44:03.717Z,4.50
2022-09-29T00:46:54.179Z,4.80
2022-09-29T00:50:00.322Z,4.30
2022-09-29T00:52:43.182Z,4.40
2022-09-29T00:55:25.097Z,4.30
2022-09-29T00:58:22.964Z,4.60
2022-09-29T01:00:50.871Z,4.20
2022-09-29T01:03:20.853Z,4.50
2022-09-29T01:05:56.966Z,4.50
2022-09-29T01:08:36.419Z,3.90
2022-09-29T01:11:05.333Z,4.90
2022-09-29T01:13:35.450Z,4.30
2022-09-29T01:16:03.475Z,4.70
2022-09-29T01:18:33.903Z,5.20
2022-09-29T01:21:11.654Z,5.90
2022-09-29T01:24:04.698Z,5.00
2022-09-29T01:26:58.005Z,6.30
2022-09-29T01:29:59.328Z,5.70
2022-09-29T01:32:55.557Z,6.90
2022-09-29T01:35:52.597Z,7.50
2022-09-29T01:38:32.720Z,7.40
2022-09-29T01:41:14.122Z,7.50
2022-09-29T01:44:03.287Z,8.30
2022-09-29T01:46:37.549Z,7.30
2022-09-29T01:49:07.258Z,8.50
2022-09-29T01:51:44.149Z,8.40
2022-09-29T01:54:21.543Z,8.90
2022-09-29T01:57:00.105Z,9.00
2022-09-29T01:59:59.337Z,8.60
2022-09-29T02:02:51.085Z,10.00
2022-09-29T02:05:34.612Z,10.30
2022-09-29T02:08:12.424Z,10.60
2022-09-29T02:11:04.678Z,10.50
2022-09-29T02:13:49.335Z,11.00
2022-09-29T02:16:39.286Z,10.40
2022-09-29T02:19:41.904Z,10.60
2022-09-29T02:22:09.805Z,9.50
2022-09-29T02:24:37.766Z,11.30
2022-09-29T02:27:05.811Z,10.90
2022-09-29T02:29:35.794Z,11.30
2022-09-29T02:32:10.143Z,10.70
2022-09-29T02:34:43.719Z,11.20
2022-09-29T02:37:27.303Z,11.90
2022-09-29T02:40:10.062Z,11.70
2022-09-29T02:42:53.717Z,11.20
2022-09-29T02:45:35.799Z,12.10
2022-09-29T02:48:15.355Z,12.10
2022-09-29T02:50:48.725Z,12.10
2022-09-29T02:53:38.276Z,11.90
2022-09-29T02:56:23.171Z,10.20
2022-09-29T02:59:01.073Z,10.10
2022-09-29T03:01:34.353Z,8.50
2022-09-29T03:04:04.610Z,7.70
2022-09-29T03:06:33.852Z,6.80
2022-09-29T03:09:01.555Z,6.00
2022-09-29T03:11:29.338Z,5.20
2022-09-29T03:13:57.082Z,4.20
2022-09-29T03:16:31.189Z,2.20
2022-09-29T03:18:59.022Z,2.20
2022-09-29T03:21:27.424Z,2.50
2022-09-29T03:23:57.851Z,2.40
2022-09-29T03:26:25.968Z,2.00
2022-09-29T03:28:53.969Z,2.40
2022-09-29T03:31:21.771Z,2.10
2022-09-29T03:33:56.085Z,2.40
2022-09-29T03:36:24.025Z,2.60
2022-09-29T03:38:51.819Z,2.20
2022-09-29T03:41:19.909Z,6.30
2022-09-29T03:43:48.263Z,4.20
2022-09-29T03:46:16.050Z,3.70
2022-09-29T03:48:47.679Z,5.70
2022-09-29T03:51:15.403Z,8.60
2022-09-29T03:53:43.174Z,8.30
2022-09-29T03:56:11.182Z,8.30
2022-09-29T03:58:39.108Z,8.90
2022-09-29T04:01:07.632Z,9.20
2022-09-29T04:03:42.510Z,9.90
2022-09-29T04:06:10.618Z,10.80
2022-09-29T04:08:39.119Z,11.80
2022-09-29T04:11:07.337Z,11.40
2022-09-29T04:13:35.433Z,10.10
2022-09-29T04:16:05.809Z,11.10
2022-09-29T04:18:34.252Z,10.00
2022-09-29T04:21:07.229Z,8.50
2022-09-29T04:23:35.826Z,9.60
2022-09-29T04:26:03.910Z,9.90
2022-09-29T04:28:33.379Z,9.80
2022-09-29T04:31:02.605Z,9.20
2022-09-29T04:33:31.406Z,8.60
2022-09-29T04:36:00.087Z,9.00
2022-09-29T04:38:28.208Z,10.00
2022-09-29T04:40:56.042Z,10.10
2022-09-29T04:43:24.304Z,10.10
2022-09-29T04:45:52.260Z,10.90
2022-09-29T04:48:20.063Z,11.00
2022-09-29T04:50:52.607Z,10.30
2022-09-29T04:53:20.692Z,10.30
2022-09-29T04:55:48.660Z,11.20
2022-09-29T04:58:16.718Z,11.40
2022-09-29T05:00:44.568Z,11.30
2022-09-29T05:03:12.460Z,10.30
2022-09-29T05:05:40.712Z,11.20
2022-09-29T05:08:15.016Z,10.70
2022-09-29T05:10:43.076Z,11.50
2022-09-29T05:13:17.568Z,10.30
2022-09-29T05:15:51.610Z,9.60
2022-09-29T05:21:10.250Z,10.90
2022-09-29T05:23:36.136Z,12.30
2022-09-29T05:26:06.718Z,10.90
2022-09-29T05:28:39.945Z,10.60
2022-09-29T05:31:28.762Z,10.60
2022-09-29T05:33:57.449Z,11.60
2022-09-29T05:36:27.212Z,11.30
2022-09-29T05:38:56.333Z,13.50
2022-09-29T05:41:24.338Z,13.00
2022-09-29T05:43:54.526Z,12.90
2022-09-29T05:46:23.566Z,12.50
2022-09-29T05:48:51.573Z,13.00
2022-09-29T05:51:23.487Z,13.20
2022-09-29T05:53:52.223Z,14.30
2022-09-29T05:56:23.520Z,13.00
2022-09-29T05:58:52.764Z,16.40
2022-09-29T06:01:25.406Z,16.80
2022-09-29T06:03:54.860Z,17.10
2022-09-29T06:06:26.255Z,18.10
2022-09-29T06:09:14.621Z,15.70
2022-09-29T06:11:49.405Z,19.50
2022-09-29T06:14:17.920Z,18.40
2022-09-29T06:16:45.950Z,19.00
2022-09-29T06:19:14.011Z,19.20
2022-09-29T06:21:41.986Z,19.80
2022-09-29T06:24:09.942Z,15.90
2022-09-29T06:26:58.016Z,20.40
2022-09-29T06:29:25.825Z,19.90
2022-09-29T06:31:54.849Z,21.40
2022-09-29T06:34:22.901Z,21.20
2022-09-29T06:37:09.836Z,19.40
2022-09-29T06:39:38.153Z,20.30
2022-09-29T06:42:06.053Z,20.30
2022-09-29T06:44:34.930Z,21.60
2022-09-29T06:47:02.844Z,22.50
2022-09-29T06:49:30.731Z,21.00
2022-09-29T06:51:58.770Z,22.10
2022-09-29T06:54:26.984Z,20.10
2022-09-29T06:56:55.701Z,22.00
2022-09-29T06:59:24.380Z,20.80
2022-09-29T07:01:52.942Z,17.60
2022-09-29T07:04:22.229Z,21.30
2022-09-29T07:06:54.440Z,20.60
2022-09-29T07:09:23.323Z,18.40
2022-09-29T07:11:52.358Z,21.50
2022-09-29T07:14:25.734Z,21.50
2022-09-29T07:16:55.081Z,21.10
2022-09-29T07:19:23.242Z,22.40
2022-09-29T07:21:52.832Z,20.40
2022-09-29T07:24:20.817Z,22.10
2022-09-29T07:26:48.758Z,22.90
2022-09-29T07:29:17.247Z,21.20
2022-09-29T07:31:51.619Z,21.40
2022-09-29T07:34:22.131Z,22.70
2022-09-29T07:36:52.190Z,23.10
2022-09-29T07:39:22.694Z,21.50
2022-09-29T07:41:52.083Z,22.10
2022-09-29T07:44:26.970Z,25.30
2022-09-29T07:46:54.805Z,24.40
2022-09-29T07:49:22.684Z,25.00
2022-09-29T07:51:51.928Z,24.70
2022-09-29T07:54:20.256Z,27.90
2022-09-29T07:56:48.159Z,25.80
2022-09-29T07:59:36.082Z,24.80
2022-09-29T08:02:04.568Z,26.20
2022-09-29T08:04:32.542Z,25.70
2022-09-29T08:07:00.564Z,23.90
2022-09-29T08:09:39.025Z,23.80
2022-09-29T08:12:10.197Z,22.50
2022-09-29T08:14:43.920Z,20.30
2022-09-29T08:17:12.084Z,22.20
2022-09-29T08:19:39.900Z,23.70
2022-09-29T08:22:08.066Z,22.60
2022-09-29T08:24:37.078Z,23.90
2022-09-29T08:27:17.083Z,24.10
2022-09-29T08:29:47.377Z,23.40
2022-09-29T08:32:15.279Z,23.70
2022-09-29T08:34:43.181Z,24.10
2022-09-29T08:37:11.694Z,25.20
2022-09-29T08:39:39.947Z,23.90
2022-09-29T08:42:26.141Z,22.40
2022-09-29T08:45:16.457Z,25.00
2022-09-29T08:47:49.191Z,26.60
2022-09-29T08:50:28.418Z,23.70
2022-09-29T08:53:00.045Z,24.80
2022-09-29T08:55:43.641Z,28.80
2022-09-29T08:58:14.499Z,25.00
2022-09-29T09:00:56.888Z,28.80
2022-09-29T09:03:43.957Z,30.20
2022-09-29T09:06:26.422Z,28.10
2022-09-29T09:09:00.000Z,30.40
2022-09-29T09:12:06.889Z,25.80
2022-09-29T09:15:09.347Z,25.80
2022-09-29T09:17:49.898Z,21.80
2022-09-29T09:20:36.901Z,23.30
2022-09-29T09:23:29.306Z,20.40
2022-09-29T09:26:02.140Z,23.70
2022-09-29T09:28:43.043Z,24.80
2022-09-29T09:31:40.817Z,22.60
2022-09-29T09:34:36.828Z,26.00
2022-09-29T09:37:14.976Z,19.80
2022-09-29T09:40:15.685Z,19.90
2022-09-29T09:42:49.762Z,20.70
2022-09-29T09:45:34.118Z,22.70
2022-09-29T09:48:19.401Z,21.00
2022-09-29T09:50:50.702Z,21.10
2022-09-29T09:53:40.888Z,20.60
2022-09-29T09:56:33.726Z,19.90
2022-09-29T09:59:19.252Z,19.20
2022-09-29T10:01:49.215Z,16.40
2022-09-29T10:04:17.246Z,17.50
2022-09-29T10:06:45.324Z,17.40
2022-09-29T10:09:16.209Z,20.10
2022-09-29T10:11:44.506Z,20.90
2022-09-29T10:14:23.199Z,20.40
2022-09-29T10:17:01.702Z,18.90
2022-09-29T10:19:54.841Z,18.30
2022-09-29T10:22:23.521Z,17.50
2022-09-29T10:25:15.857Z,17.60
2022-09-29T10:27:49.242Z,15.30
2022-09-29T10:30:27.535Z,16.10
2022-09-29T10:33:00.565Z,18.10
2022-09-29T10:35:47.668Z,13.30
2022-09-29T10:38:26.312Z,13.00
2022-09-29T10:41:04.300Z,14.30
2022-09-29T10:43:39.810Z,14.80
2022-09-29T10:46:46.330Z,13.80
2022-09-29T10:49:17.217Z,13.60
2022-09-29T10:52:05.373Z,10.30
2022-09-29T10:54:37.150Z,10.70
2022-09-29T10:57:15.879Z,8.50
2022-09-29T10:59:49.748Z,10.60
2022-09-29T11:02:40.575Z,11.00
2022-09-29T11:05:43.011Z,11.10
2022-09-29T11:08:13.482Z,11.30
2022-09-29T11:10:41.934Z,9.00
2022-09-29T11:13:34.999Z,12.00
2022-09-29T11:16:19.081Z,11.80
2022-09-29T11:21:22.088Z,12.60
2022-09-29T11:24:15.989Z,12.70
2022-09-29T11:27:14.552Z,14.20
2022-09-29T11:29:59.436Z,14.40
2022-09-29T11:32:36.682Z,14.00
2022-09-29T11:35:55.659Z,14.50
2022-09-29T11:39:04.670Z,18.00
2022-09-29T11:42:03.161Z,20.40
2022-09-29T11:44:48.382Z,17.60
2022-09-29T11:47:41.488Z,15.70
2022-09-29T11:50:22.848Z,16.00
2022-09-29T11:53:12.862Z,14.40
2022-09-29T11:55:55.484Z,17.20
2022-09-29T11:58:32.342Z,25.50
2022-09-29T12:01:22.026Z,24.10
2022-09-29T12:04:21.895Z,15.10
2022-09-29T12:07:00.015Z,13.90
2022-09-29T12:09:53.984Z,17.70
2022-09-29T12:12:27.123Z,16.60
2022-09-29T12:15:21.577Z,14.50
2022-09-29T12:18:16.837Z,22.80
2022-09-29T12:20:49.623Z,14.80
2022-09-29T12:23:40.968Z,14.00
2022-09-29T12:26:24.881Z,12.90
2022-09-29T12:28:55.763Z,13.00
2022-09-29T12:31:28.886Z,12.20
2022-09-29T12:34:01.785Z,13.90
2022-09-29T12:36:52.522Z,11.40
2022-09-29T12:39:44.882Z,10.00
2022-09-29T12:42:47.176Z,12.80
2022-09-29T12:45:22.705Z,10.90
2022-09-29T12:47:57.213Z,12.60
2022-09-29T12:50:53.855Z,10.20
2022-09-29T12:53:49.805Z,11.70
2022-09-29T12:56:27.910Z,11.00
2022-09-29T12:59:09.373Z,10.80
2022-09-29T13:01:38.616Z,11.60
2022-09-29T13:04:15.766Z,11.30
2022-09-29T13:07:05.330Z,10.00
2022-09-29T13:09:45.175Z,11.60
2022-09-29T13:12:52.973Z,11.90
2022-09-29T13:15:36.196Z,13.40
2022-09-29T13:18:59.659Z,13.60
2022-09-29T13:22:11.127Z,13.40
2022-09-29T13:24:47.631Z,11.00
2022-09-29T13:27:35.278Z,16.10
2022-09-29T13:30:06.660Z,19.90
2022-09-29T13:32:59.394Z,27.00
2022-09-29T13:35:28.288Z,16.80
2022-09-29T13:38:06.428Z,15.90
2022-09-29T13:40:35.131Z,11.70
2022-09-29T13:43:05.732Z,10.90
2022-09-29T13:45:36.800Z,11.40
2022-09-29T13:48:17.003Z,8.40
2022-09-29T13:50:47.592Z,10.40
2022-09-29T13:53:22.303Z,8.40
2022-09-29T13:55:52.333Z,10.20
2022-09-29T13:58:32.686Z,9.00
2022-09-29T14:01:07.527Z,10.50
2022-09-29T14:03:40.339Z,9.90
2022-09-29T14:06:40.300Z,10.60
2022-09-29T14:09:20.398Z,10.60
2022-09-29T14:11:57.822Z,10.00
2022-09-29T14:14:40.920Z,10.00
2022-09-29T14:17:44.624Z,10.10
2022-09-29T14:20:24.853Z,8.90
2022-09-29T14:22:57.213Z,10.00
2022-09-29T14:25:40.385Z,9.30
2022-09-29T14:28:13.848Z,8.80
2022-09-29T14:33:29.756Z,9.00
2022-09-29T14:36:04.655Z,8.30
2022-09-29T14:39:21.665Z,8.50
2022-09-29T14:41:47.807Z,9.00
2022-09-29T14:44:48.479Z,10.10
2022-09-29T14:48:19.925Z,11.60
2022-09-29T14:51:22.248Z,10.20
2022-09-29T14:54:02.958Z,9.30
2022-09-29T14:57:16.297Z,9.90
2022-09-29T14:59:58.649Z,9.50
2022-09-29T15:02:34.301Z,10.50
2022-09-29T15:05:13.167Z,10.40
2022-09-29T15:07:43.160Z,8.70
2022-09-29T15:10:23.733Z,9.40
2022-09-29T15:12:52.258Z,9.70
2022-09-29T15:15:38.552Z,9.30
2022-09-29T15:18:30.013Z,10.40
2022-09-29T15:21:10.618Z,10.50
2022-09-29T15:24:07.911Z,10.50
2022-09-29T15:26:41.143Z,10.70
2022-09-29T15:29:15.900Z,10.60
2022-09-29T15:31:53.911Z,10.40
2022-09-29T15:34:25.911Z,11.30
2022-09-29T15:36:56.633Z,11.10
2022-09-29T15:39:33.803Z,11.00
2022-09-29T15:42:15.439Z,10.50
2022-09-29T15:44:58.774Z,11.30
2022-09-29T15:47:41.585Z,11.20
2022-09-29T15:50:24.627Z,12.00
2022-09-29T15:52:54.018Z,14.80
2022-09-29T15:55:24.099Z,29.50
2022-09-29T15:57:58.609Z,27.30
2022-09-29T16:00:33.080Z,14.40
2022-09-29T16:03:30.497Z,13.80
2022-09-29T16:06:24.939Z,10.30
2022-09-29T16:08:57.128Z,11.30
2022-09-29T16:11:33.340Z,13.30
2022-09-29T16:14:29.754Z,14.00
2022-09-29T16:16:58.371Z,14.20
2022-09-29T16:19:30.773Z,13.50
2022-09-29T16:22:03.038Z,14.10
2022-09-29T16:24:36.987Z,17.70
2022-09-29T16:27:40.917Z,18.40
2022-09-29T16:30:32.294Z,18.50
2022-09-29T16:33:17.041Z,20.40
2022-09-29T16:35:54.830Z,22.00
2022-09-29T16:38:29.077Z,20.60
2022-09-29T16:40:59.426Z,19.20
2022-09-29T16:43:33.690Z,17.30
2022-09-29T16:46:06.606Z,16.20
2022-09-29T16:48:42.908Z,16.30
2022-09-29T16:51:40.098Z,15.70
2022-09-29T16:54:18.786Z,15.40
2022-09-29T16:57:18.157Z,20.50
2022-09-29T16:59:46.611Z,17.30
2022-09-29T17:02:15.113Z,16.20
2022-09-29T17:04:43.648Z,17.50
2022-09-29T17:07:15.845Z,18.40
2022-09-29T17:09:50.399Z,17.40
2022-09-29T17:12:18.701Z,18.80
2022-09-29T17:14:47.864Z,22.90
2022-09-29T17:17:23.063Z,21.70
2022-09-29T17:19:52.864Z,24.30
2022-09-29T17:22:29.107Z,28.10
2022-09-29T17:24:58.650Z,24.30
2022-09-29T17:27:46.239Z,27.20
2022-09-29T17:30:21.171Z,28.30
2022-09-29T17:32:51.035Z,26.60
2022-09-29T17:35:26.399Z,25.70
2022-09-29T17:37:58.038Z,26.00
2022-09-29T17:41:05.111Z,24.60
2022-09-29T17:43:34.069Z,21.70
2022-09-29T17:46:02.150Z,21.80
2022-09-29T17:48:30.901Z,20.50
2022-09-29T17:51:00.668Z,21.50
2022-09-29T17:53:29.087Z,21.80
2022-09-29T17:56:26.012Z,21.10
2022-09-29T17:58:55.252Z,23.60
2022-09-29T18:01:26.441Z,22.60
2022-09-29T18:03:57.411Z,24.60
2022-09-29T18:06:26.950Z,32.10
2022-09-29T18:08:57.283Z,32.30
2022-09-29T18:11:31.495Z,29.70
2022-09-29T18:14:01.445Z,30.80
2022-09-29T18:16:29.620Z,28.00
2022-09-29T18:18:59.184Z,30.10
2022-09-29T18:21:27.502Z,27.30
2022-09-29T18:23:57.609Z,27.00
2022-09-29T18:26:46.164Z,28.70
2022-09-29T18:29:19.504Z,30.50
2022-09-29T18:31:48.754Z,30.00
2022-09-29T18:34:19.441Z,31.40
2022-09-29T18:36:48.052Z,34.10
2022-09-29T18:39:16.163Z,41.20
2022-09-29T18:41:44.513Z,44.60
2022-09-29T18:44:15.384Z,37.30
2022-09-29T18:46:44.760Z,28.80
2022-09-29T18:51:59.807Z,23.10
2022-09-29T18:54:28.099Z,20.00
2022-09-29T18:56:56.061Z,20.20
2022-09-29T18:59:24.521Z,20.80
2022-09-29T19:01:52.531Z,21.70
2022-09-29T19:04:24.597Z,22.30
2022-09-29T19:06:52.624Z,22.40
2022-09-29T19:09:21.117Z,24.20
2022-09-29T19:11:49.942Z,28.80
2022-09-29T19:14:18.009Z,35.70
2022-09-29T19:16:54.958Z,44.10
2022-09-29T19:19:24.776Z,66.30
2022-09-29T19:21:52.718Z,99.30
2022-09-29T19:24:24.216Z,102.10
2022-09-29T19:26:52.038Z,115.60
2022-09-29T19:29:20.812Z,119.20
2022-09-29T19:31:52.636Z,137.70
2022-09-29T19:34:20.878Z,136.50
2022-09-29T19:36:58.450Z,124.40
2022-09-29T19:39:32.765Z,93.60
2022-09-29T19:42:02.640Z,56.90
2022-09-29T19:44:52.884Z,56.50
2022-09-29T19:47:21.030Z,42.20
2022-09-29T19:49:49.172Z,31.40
2022-09-29T19:52:37.235Z,34.40
2022-09-29T19:55:11.176Z,50.20
2022-09-29T19:57:42.660Z,37.20
2022-09-29T20:00:20.479Z,28.40
2022-09-29T20:02:48.589Z,24.30
2022-09-29T20:05:24.256Z,31.70
2022-09-29T20:08:00.278Z,28.70
2022-09-29T20:10:36.386Z,25.40
2022-09-29T20:13:09.028Z,24.60
2022-09-29T20:15:39.083Z,19.60
2022-09-29T20:18:09.568Z,22.10
2022-09-29T20:20:38.397Z,22.30
2022-09-29T20:23:06.198Z,20.00
2022-09-29T20:25:34.323Z,18.00
2022-09-29T20:28:02.268Z,19.80
2022-09-29T20:30:31.870Z,18.00
2022-09-29T20:33:00.093Z,17.70
2022-09-29T20:35:28.378Z,18.30
2022-09-29T20:38:16.150Z,20.20
2022-09-29T20:40:44.007Z,18.40
2022-09-29T20:43:14.563Z,18.60
2022-09-29T20:45:43.436Z,18.20
2022-09-29T20:48:17.873Z,17.50
2022-09-29T20:50:45.931Z,17.60
2022-09-29T20:53:13.636Z,18.40
2022-09-29T20:55:41.623Z,17.80
2022-09-29T20:58:11.572Z,16.30
2022-09-29T21:00:40.932Z,17.00
2022-09-29T21:03:08.772Z,17.60
2022-09-29T21:05:37.469Z,17.10
2022-09-29T21:08:07.928Z,16.50
2022-09-29T21:10:35.636Z,17.70
2022-09-29T21:13:10.641Z,17.60
2022-09-29T21:15:39.409Z,19.50
2022-09-29T21:18:15.377Z,18.60
2022-09-29T21:20:43.274Z,18.50
2022-09-29T21:23:13.462Z,18.30
2022-09-29T21:25:41.480Z,18.10
2022-09-29T21:28:09.982Z,18.20
2022-09-29T21:30:37.853Z,18.50
2022-09-29T21:33:05.596Z,16.30
2022-09-29T21:35:34.147Z,16.60
2022-09-29T21:38:02.669Z,16.20
2022-09-29T21:40:32.073Z,16.40
2022-09-29T21:42:59.766Z,19.10
2022-09-29T21:45:27.675Z,27.70
2022-09-29T21:48:11.785Z,24.50
2022-09-29T21:50:40.259Z,24.30
2022-09-29T21:53:07.976Z,25.00
2022-09-29T21:55:41.517Z,23.20
2022-09-29T21:58:09.405Z,21.10
2022-09-29T22:00:39.073Z,22.10
2022-09-29T22:03:06.870Z,19.30
2022-09-29T22:05:35.408Z,19.80
2022-09-29T22:08:03.338Z,19.50
2022-09-29T22:10:31.204Z,19.10
2022-09-29T22:12:59.187Z,19.40
2022-09-29T22:18:02.936Z,19.60
2022-09-29T22:20:30.934Z,19.10
2022-09-29T22:22:58.702Z,20.00
2022-09-29T22:25:29.553Z,18.50
2022-09-29T22:30:28.621Z,17.80
2022-09-29T22:32:56.393Z,18.80
2022-09-29T22:35:28.116Z,18.50
2022-09-29T22:37:55.953Z,18.40
2022-09-29T22:40:23.743Z,20.80
2022-09-29T22:42:51.706Z,20.80
2022-09-29T22:45:19.557Z,19.30
2022-09-29T22:47:47.509Z,20.10
2022-09-29T22:50:15.479Z,20.70
2022-09-29T22:52:43.323Z,19.90
2022-09-29T22:55:11.125Z,20.10
2022-09-29T22:57:39.002Z,19.10
2022-09-29T23:00:07.939Z,19.80
2022-09-29T23:02:36.513Z,21.40
2022-09-29T23:05:04.603Z,20.20
2022-09-29T23:07:32.419Z,19.80
2022-09-29T23:10:00.320Z,20.70
2022-09-29T23:12:31.350Z,20.80
2022-09-29T23:14:59.140Z,22.20
2022-09-29T23:17:30.476Z,22.40
2022-09-29T23:19:59.139Z,23.40
2022-09-29T23:22:26.988Z,23.30
2022-09-29T23:24:55.965Z,22.40
2022-09-29T23:27:24.806Z,25.30
2022-09-29T23:29:52.620Z,23.50
2022-09-29T23:32:24.290Z,23.30
2022-09-29T23:34:52.083Z,22.20
2022-09-29T23:37:19.877Z,22.40
2022-09-29T23:39:47.640Z,20.40
2022-09-29T23:42:15.781Z,19.30
2022-09-29T23:44:43.673Z,22.40
2022-09-29T23:47:11.492Z,23.00
2022-09-29T23:49:39.244Z,23.40
2022-09-29T23:52:07.181Z,21.20
2022-09-29T23:54:35.045Z,24.10
2022-09-29T23:57:02.885Z,22.30
2022-09-29T23:59:31.133Z,22.70
